Time;durP1;ratioP1;P1;durP2;ratioP2;P2;SDS_P1;SDS_P2;PMS_P1;PMS_P2;Temp;Humidity;BMP_temperature;BMP_pressure;BME280_temperature;BME280_humidity;BME280_pressure;Samples;Min_cycle;Max_cycle;Signal;HPM_P1;HPM_P2
2022/07/30 00:00:17;;;;;;;7.00;6.30;;;;;;;17.58;100.00;98143.41;5057294;28;20216;-76
2022/07/30 00:02:44;;;;;;;6.90;6.30;;;;;;;17.60;100.00;98141.41;5057040;28;20242;-75
2022/07/30 00:05:10;;;;;;;7.13;6.53;;;;;;;17.63;100.00;98139.28;5060121;28;20215;-75
2022/07/30 00:07:37;;;;;;;6.87;6.30;;;;;;;17.65;100.00;98142.66;5058952;28;20211;-75
2022/07/30 00:10:04;;;;;;;6.70;6.10;;;;;;;17.63;100.00;98141.94;5055653;28;20216;-75
2022/07/30 00:12:32;;;;;;;6.50;5.90;;;;;;;17.62;100.00;98137.59;5057371;28;20218;-76
2022/07/30 00:14:59;;;;;;;6.87;6.27;;;;;;;17.63;100.00;98143.81;5059741;28;20220;-76
2022/07/30 00:17:26;;;;;;;6.53;5.93;;;;;;;17.64;100.00;98146.34;5058750;28;20707;-76
2022/07/30 00:19:53;;;;;;;6.73;6.13;;;;;;;17.63;100.00;98151.81;5057364;28;20618;-75
2022/07/30 00:22:19;;;;;;;7.23;6.53;;;;;;;17.64;100.00;98151.69;5057308;28;20246;-75
2022/07/30 00:24:46;;;;;;;6.73;6.13;;;;;;;17.68;100.00;98153.03;5059269;28;20246;-76
2022/07/30 00:27:13;;;;;;;6.60;6.10;;;;;;;17.70;100.00;98161.78;5059390;28;20226;-76
2022/07/30 00:29:41;;;;;;;6.53;5.93;;;;;;;17.85;100.00;98165.59;5057274;28;20649;-75
2022/07/30 00:32:07;;;;;;;6.50;5.93;;;;;;;17.94;100.00;98170.06;5057053;28;20212;-76
2022/07/30 00:34:34;;;;;;;6.17;5.60;;;;;;;18.03;100.00;98168.28;5059243;28;20212;-76
2022/07/30 00:37:00;;;;;;;5.60;5.10;;;;;;;18.09;100.00;98173.91;5057662;28;20699;-75
2022/07/30 00:39:29;;;;;;;6.13;5.53;;;;;;;18.16;100.00;98166.94;5056885;28;20208;-75
2022/07/30 00:41:57;;;;;;;5.67;5.17;;;;;;;18.20;98.62;98165.66;5057059;28;20634;-76
2022/07/30 00:44:24;;;;;;;5.30;4.90;;;;;;;18.14;98.33;98171.59;5059030;28;20249;-75
2022/07/30 00:46:51;;;;;;;5.50;5.00;;;;;;;18.11;97.97;98177.25;5059385;28;20561;-75
2022/07/30 00:49:18;;;;;;;5.40;4.83;;;;;;;18.07;97.38;98181.25;5056944;28;20230;-75
2022/07/30 00:51:45;;;;;;;5.40;4.90;;;;;;;18.07;96.97;98167.00;5057091;28;20212;-76
2022/07/30 00:54:11;;;;;;;5.10;4.70;;;;;;;18.11;95.53;98168.41;5058559;28;20208;-75
2022/07/30 00:56:38;;;;;;;5.77;4.70;;;;;;;18.04;95.91;98173.50;5063092;28;20234;-76
2022/07/30 00:59:05;;;;;;;5.50;4.60;;;;;;;17.99;95.86;98173.09;5058690;28;20287;-76
2022/07/30 01:01:32;;;;;;;4.60;4.20;;;;;;;17.98;95.85;98173.28;5058484;28;20216;-76
2022/07/30 01:04:00;;;;;;;4.80;4.40;;;;;;;17.93;96.04;98165.69;5057829;28;20243;-78
2022/07/30 01:06:27;;;;;;;4.83;4.43;;;;;;;17.94;95.69;98163.88;5060096;28;20242;-76
2022/07/30 01:08:54;;;;;;;5.23;4.77;;;;;;;17.96;95.18;98172.56;5058565;28;20248;-76
2022/07/30 01:11:21;;;;;;;4.97;4.00;;;;;;;17.97;95.37;98175.09;5058544;28;20216;-75
2022/07/30 01:13:48;;;;;;;4.83;4.43;;;;;;;18.00;95.63;98174.81;5061594;28;20219;-75
2022/07/30 01:16:15;;;;;;;4.73;4.33;;;;;;;18.05;95.34;98177.03;5063593;28;20212;-75
2022/07/30 01:21:36;;;;;;;5.10;4.50;;;;;;;18.15;92.65;98173.28;5060416;28;20294;-76
2022/07/30 01:24:18;;;;;;;5.43;4.97;;;;;;;18.16;93.98;98177.63;5056673;28;20243;-76
2022/07/30 01:26:47;;;;;;;4.53;4.13;;;;;;;17.98;95.27;98176.78;5050997;28;20621;-76
2022/07/30 01:29:16;;;;;;;5.07;4.57;;;;;;;17.83;96.29;98182.78;5058854;28;20212;-75
2022/07/30 01:31:46;;;;;;;4.97;4.47;;;;;;;17.79;96.04;98173.41;5063289;28;20314;-77
2022/07/30 01:34:14;;;;;;;4.77;4.33;;;;;;;17.74;96.07;98184.53;5061046;28;20217;-74
2022/07/30 01:36:42;;;;;;;5.43;4.40;;;;;;;17.75;96.07;98180.84;5060116;28;20212;-76
2022/07/30 01:39:09;;;;;;;4.37;4.07;;;;;;;17.72;96.50;98189.19;5058088;28;20215;-74
2022/07/30 01:41:36;;;;;;;4.53;4.13;;;;;;;17.69;96.77;98186.78;5063292;28;20222;-74
2022/07/30 01:44:06;;;;;;;4.30;4.00;;;;;;;17.66;97.29;98192.44;5060502;28;20238;-74
2022/07/30 01:46:34;;;;;;;4.37;3.97;;;;;;;17.63;98.18;98200.75;5059714;28;20645;-76
2022/07/30 01:49:02;;;;;;;4.50;4.10;;;;;;;17.56;98.87;98191.66;5059889;28;20212;-76
2022/07/30 01:51:30;;;;;;;5.07;4.57;;;;;;;17.55;97.63;98199.84;5054135;28;20359;-77
2022/07/30 01:53:58;;;;;;;5.50;4.40;;;;;;;17.53;97.40;98196.44;5059974;28;20669;-77
2022/07/30 01:56:26;;;;;;;4.93;4.30;;;;;;;17.44;98.03;98198.16;5058116;28;20212;-77
2022/07/30 01:58:55;;;;;;;5.03;4.60;;;;;;;17.39;98.28;98189.78;5059247;28;20222;-77
2022/07/30 02:01:23;;;;;;;5.00;4.50;;;;;;;17.35;98.58;98188.34;5054421;28;20691;-76
2022/07/30 02:03:50;;;;;;;4.80;4.40;;;;;;;17.27;98.82;98193.59;5059215;28;20243;-76
2022/07/30 02:06:21;;;;;;;4.73;4.27;;;;;;;17.23;98.74;98192.19;5059235;28;20634;-76
2022/07/30 02:08:54;;;;;;;5.33;4.67;;;;;;;17.24;98.68;98201.88;5060236;28;20303;-76
2022/07/30 02:14:07;;;;;;;4.90;4.40;;;;;;;17.16;98.71;98196.44;5059098;28;20211;-77
2022/07/30 02:16:39;;;;;;;4.60;4.20;;;;;;;17.13;98.46;98186.03;5059664;28;20208;-76
2022/07/30 02:19:09;;;;;;;4.97;4.27;;;;;;;17.14;98.42;98186.88;5054645;28;20211;-76
2022/07/30 02:21:40;;;;;;;4.97;4.47;;;;;;;17.14;97.84;98185.03;5046751;28;20309;-77
2022/07/30 02:24:12;;;;;;;4.17;3.87;;;;;;;17.14;97.73;98190.38;5058960;28;20275;-76
2022/07/30 02:26:40;;;;;;;5.37;4.63;;;;;;;17.16;97.79;98192.91;5061081;28;20326;-76
2022/07/30 02:29:07;;;;;;;5.27;4.70;;;;;;;17.08;98.56;98185.59;5061371;28;20212;-76
2022/07/30 02:31:37;;;;;;;4.90;4.40;;;;;;;17.09;98.39;98189.97;5059126;28;20220;-76
2022/07/30 02:34:05;;;;;;;4.83;4.33;;;;;;;17.10;98.64;98190.81;5058992;28;20208;-77
2022/07/30 02:36:33;;;;;;;4.83;4.43;;;;;;;17.10;98.15;98183.66;5061219;28;20244;-76
2022/07/30 02:39:02;;;;;;;4.67;4.27;;;;;;;17.04;98.85;98196.72;5061145;28;20203;-76
2022/07/30 02:41:30;;;;;;;6.60;4.53;;;;;;;17.02;99.03;98196.88;5058506;28;20231;-76
2022/07/30 02:43:58;;;;;;;4.83;4.40;;;;;;;17.01;98.36;98200.53;5058427;28;20236;-76
2022/07/30 02:46:25;;;;;;;5.00;4.50;;;;;;;17.05;97.74;98196.59;5060088;28;20580;-76
2022/07/30 02:48:54;;;;;;;5.20;4.50;;;;;;;17.06;97.36;98214.28;5060200;28;20262;-76
2022/07/30 02:51:22;;;;;;;4.63;4.20;;;;;;;17.08;97.12;98209.63;5058603;28;20208;-76
2022/07/30 02:53:51;;;;;;;4.37;3.97;;;;;;;17.01;97.39;98208.53;5058309;28;20678;-77
2022/07/30 02:56:21;;;;;;;4.60;4.17;;;;;;;17.02;97.44;98222.75;5061631;28;20212;-76
2022/07/30 02:58:50;;;;;;;4.53;4.13;;;;;;;16.97;97.21;98217.84;5059476;28;20566;-76
2022/07/30 03:01:19;;;;;;;4.60;4.20;;;;;;;16.92;97.41;98216.56;5058320;28;20303;-76
2022/07/30 03:03:47;;;;;;;4.70;4.30;;;;;;;16.89;97.85;98223.03;5058072;28;20278;-76
2022/07/30 03:06:16;;;;;;;4.97;4.50;;;;;;;16.85;98.10;98216.31;5052556;28;20215;-76
2022/07/30 03:08:44;;;;;;;4.53;4.13;;;;;;;16.82;97.68;98227.25;5058198;28;20212;-76
2022/07/30 03:11:12;;;;;;;5.00;4.60;;;;;;;16.76;97.73;98222.50;5058276;28;20218;-76
2022/07/30 03:13:39;;;;;;;5.20;4.63;;;;;;;16.72;97.77;98221.13;5056596;28;20235;-76
2022/07/30 03:16:09;;;;;;;6.40;4.50;;;;;;;16.66;97.98;98220.81;5061846;28;20263;-76
2022/07/30 03:18:38;;;;;;;5.40;4.63;;;;;;;16.64;97.75;98223.63;5046414;28;20219;-77
2022/07/30 03:21:07;;;;;;;5.10;4.60;;;;;;;16.60;97.96;98227.56;5058027;28;20208;-76
2022/07/30 03:23:37;;;;;;;5.13;4.73;;;;;;;16.59;97.73;98225.88;5058663;28;20311;-76
2022/07/30 03:26:07;;;;;;;5.23;4.77;;;;;;;16.57;97.69;98233.19;5061083;28;20261;-76
2022/07/30 03:28:37;;;;;;;4.50;4.10;;;;;;;16.52;97.81;98230.09;5057868;28;20265;-76
2022/07/30 03:31:05;;;;;;;5.43;4.80;;;;;;;16.52;97.72;98229.25;5057880;28;20216;-76
2022/07/30 03:33:34;;;;;;;5.50;4.87;;;;;;;16.52;97.06;98232.75;5059564;28;20212;-75
2022/07/30 03:36:02;;;;;;;4.93;4.53;;;;;;;16.49;96.69;98241.06;5059532;28;20218;-76
2022/07/30 03:38:29;;;;;;;5.20;4.70;;;;;;;16.51;96.67;98232.91;5055164;28;20697;-76
2022/07/30 03:40:58;;;;;;;5.70;4.60;;;;;;;16.52;96.03;98243.44;5057263;28;20669;-75
2022/07/30 03:43:26;;;;;;;5.60;4.30;;;;;;;16.52;95.44;98240.75;5060263;28;20220;-75
2022/07/30 03:45:54;;;;;;;6.17;5.00;;;;;;;16.50;95.30;98242.72;5059249;28;20243;-76
2022/07/30 03:48:22;;;;;;;6.67;5.10;;;;;;;16.49;95.11;98249.06;5057379;28;20238;-76
2022/07/30 03:50:49;;;;;;;5.70;4.70;;;;;;;16.50;95.24;98242.72;5057394;28;20212;-76
2022/07/30 03:53:16;;;;;;;5.30;4.20;;;;;;;16.47;95.23;98253.66;5059928;28;20207;-76
2022/07/30 03:55:43;;;;;;;5.53;4.30;;;;;;;16.51;95.21;98254.25;5059024;28;20273;-77
2022/07/30 03:58:11;;;;;;;5.87;4.63;;;;;;;16.48;95.10;98255.38;5057882;28;20219;-75
2022/07/30 04:00:38;;;;;;;5.30;4.80;;;;;;;16.44;95.33;98251.28;5057406;28;20212;-77
2022/07/30 04:03:05;;;;;;;4.80;4.30;;;;;;;16.45;95.23;98255.66;5059964;28;20212;-75
2022/07/30 04:05:32;;;;;;;5.23;4.70;;;;;;;16.43;95.49;98257.63;5057744;28;20241;-75
2022/07/30 04:07:58;;;;;;;5.23;4.40;;;;;;;16.44;95.22;98256.63;5057176;28;20591;-75
2022/07/30 04:10:25;;;;;;;4.90;4.33;;;;;;;16.46;95.02;98262.66;5057443;28;20235;-75
2022/07/30 04:12:51;;;;;;;4.50;4.10;;;;;;;16.45;95.08;98263.66;5059430;28;20220;-75
2022/07/30 04:15:19;;;;;;;6.20;4.63;;;;;;;16.45;94.96;98266.31;5059584;28;20218;-76
2022/07/30 04:17:49;;;;;;;5.37;4.87;;;;;;;16.44;95.09;98267.31;5057427;28;20214;-76
2022/07/30 04:20:20;;;;;;;4.60;4.07;;;;;;;16.46;95.11;98268.00;5057375;28;20212;-75
2022/07/30 04:22:47;;;;;;;4.80;4.30;;;;;;;16.48;95.24;98276.72;5059639;28;21000;-75
2022/07/30 04:25:15;;;;;;;4.97;4.57;;;;;;;16.49;95.44;98278.41;5059064;28;20239;-75
2022/07/30 04:27:42;;;;;;;7.50;4.77;;;;;;;16.54;94.88;98286.84;5057175;28;20215;-76
2022/07/30 04:30:09;;;;;;;5.30;4.80;;;;;;;16.51;95.09;98286.28;5058396;28;20208;-76
2022/07/30 04:32:38;;;;;;;7.13;5.00;;;;;;;16.59;94.56;98284.56;5062201;28;20224;-75
2022/07/30 04:35:05;;;;;;;6.03;4.97;;;;;;;16.64;93.90;98286.84;5062858;28;20573;-75
2022/07/30 04:37:31;;;;;;;5.03;4.50;;;;;;;16.68;93.69;98289.09;5060955;28;20216;-75
2022/07/30 04:39:58;;;;;;;5.50;4.70;;;;;;;16.74;93.11;98291.19;5060969;28;20208;-75
2022/07/30 04:42:25;;;;;;;5.20;4.70;;;;;;;16.79;92.67;98291.63;5063585;28;20216;-76
2022/07/30 04:44:52;;;;;;;4.70;4.30;;;;;;;17.08;91.90;98288.94;5063203;28;20239;-75
2022/07/30 04:47:19;;;;;;;4.37;3.97;;;;;;;17.33;90.82;98299.88;5060781;28;20227;-76
2022/07/30 04:49:48;;;;;;;5.40;4.90;;;;;;;17.22;91.08;98297.34;5061217;28;20218;-76
2022/07/30 04:52:17;;;;;;;5.33;4.57;;;;;;;17.14;91.34;98302.53;5063284;28;20658;-77
2022/07/30 04:54:45;;;;;;;6.27;4.97;;;;;;;17.18;90.85;98303.13;5062361;28;20215;-75
2022/07/30 04:57:15;;;;;;;5.00;4.60;;;;;;;17.23;90.84;98300.84;5058962;28;20212;-75
2022/07/30 04:59:41;;;;;;;5.53;5.00;;;;;;;17.26;90.33;98303.25;5060589;28;20215;-75
2022/07/30 05:02:10;;;;;;;5.60;5.00;;;;;;;17.33;89.92;98310.56;5063731;28;20265;-75
2022/07/30 05:04:37;;;;;;;5.87;5.20;;;;;;;17.38;89.69;98316.31;5062002;28;20235;-75
2022/07/30 05:07:07;;;;;;;6.23;5.27;;;;;;;17.43;89.60;98313.25;5060650;28;20230;-75
2022/07/30 05:09:34;;;;;;;6.90;4.80;;;;;;;17.51;89.18;98316.03;5060410;28;20223;-75
2022/07/30 05:12:00;;;;;;;7.53;5.50;;;;;;;17.57;88.63;98320.78;5063912;28;20219;-75
2022/07/30 05:14:27;;;;;;;5.70;4.50;;;;;;;17.74;87.42;98328.06;5061521;28;20207;-74
2022/07/30 05:16:54;;;;;;;4.90;4.50;;;;;;;17.84;87.29;98319.00;5060249;28;20215;-74
2022/07/30 05:19:22;;;;;;;4.93;4.00;;;;;;;17.96;87.43;98323.19;5060497;28;20254;-74
2022/07/30 05:21:48;;;;;;;5.37;4.60;;;;;;;18.10;87.12;98319.19;5062946;28;20730;-74
2022/07/30 05:24:16;;;;;;;5.73;4.60;;;;;;;18.23;86.82;98323.19;5060229;28;20215;-74
2022/07/30 05:26:43;;;;;;;5.27;4.70;;;;;;;18.41;85.84;98324.09;5060355;28;20588;-73
2022/07/30 05:29:09;;;;;;;7.60;4.50;;;;;;;18.63;84.95;98330.88;5059995;28;20700;-74
2022/07/30 05:31:36;;;;;;;5.30;4.67;;;;;;;19.15;81.76;98330.88;5062986;28;20212;-74
2022/07/30 05:34:03;;;;;;;5.60;5.10;;;;;;;20.06;76.67;98322.38;5061729;28;20215;-74
2022/07/30 05:36:29;;;;;;;4.90;4.40;;;;;;;20.98;72.89;98322.16;5060060;28;20678;-74
2022/07/30 05:38:56;;;;;;;4.67;4.27;;;;;;;21.86;69.16;98324.00;5058845;28;20666;-74
2022/07/30 05:41:24;;;;;;;5.17;4.40;;;;;;;22.68;65.19;98327.09;5061669;28;20208;-74
2022/07/30 05:43:50;;;;;;;4.30;3.90;;;;;;;23.46;62.62;98326.75;5062048;28;20222;-74
2022/07/30 05:46:17;;;;;;;5.67;4.57;;;;;;;24.16;59.86;98329.94;5059532;28;20244;-75
2022/07/30 05:48:43;;;;;;;5.13;4.07;;;;;;;24.72;57.14;98324.72;5059493;28;20214;-74
2022/07/30 05:51:10;;;;;;;4.83;4.17;;;;;;;25.23;55.32;98323.59;5060201;28;20220;-74
2022/07/30 05:53:36;;;;;;;5.10;4.10;;;;;;;25.71;53.47;98328.25;5062525;28;20211;-74
2022/07/30 05:56:03;;;;;;;5.23;4.23;;;;;;;26.07;51.16;98328.97;5059751;28;20228;-74
2022/07/30 05:58:31;;;;;;;4.47;3.53;;;;;;;26.46;50.38;98334.59;5059712;28;20307;-74
2022/07/30 06:00:57;;;;;;;4.43;4.03;;;;;;;26.75;48.45;98336.25;5061100;28;20216;-74
2022/07/30 06:03:25;;;;;;;6.80;4.03;;;;;;;27.07;48.47;98332.81;5062450;28;20306;-74
2022/07/30 06:05:51;;;;;;;5.67;3.90;;;;;;;27.33;47.32;98333.75;5059186;28;20741;-75
2022/07/30 06:08:18;;;;;;;5.63;4.10;;;;;;;27.53;45.88;98329.16;5058919;28;20218;-74
2022/07/30 06:10:44;;;;;;;7.27;4.50;;;;;;;27.36;45.41;98338.75;5058250;28;20689;-75
2022/07/30 06:13:11;;;;;;;4.70;3.73;;;;;;;27.61;46.04;98342.53;5059937;28;20609;-71
2022/07/30 06:15:38;;;;;;;4.00;3.60;;;;;;;27.90;44.97;98347.59;5053379;28;20299;-75
2022/07/30 06:18:05;;;;;;;3.90;3.50;;;;;;;28.06;45.20;98345.25;5057548;28;20708;-73
2022/07/30 06:20:32;;;;;;;5.33;4.17;;;;;;;27.78;43.44;98343.81;5058246;28;20212;-76
2022/07/30 06:22:58;;;;;;;4.70;3.80;;;;;;;27.56;43.44;98347.75;5061763;28;20243;-76
2022/07/30 06:25:25;;;;;;;5.03;4.50;;;;;;;27.27;43.16;98350.84;5046591;28;20248;-76
2022/07/30 06:27:51;;;;;;;4.30;3.90;;;;;;;27.07;43.40;98349.91;5057852;28;20589;-75
2022/07/30 06:30:18;;;;;;;5.20;4.10;;;;;;;27.00;43.76;98349.06;5058185;28;20212;-76
2022/07/30 06:32:46;;;;;;;5.70;4.10;;;;;;;27.24;43.22;98355.84;5061432;28;20212;-76
2022/07/30 06:35:12;;;;;;;4.13;3.50;;;;;;;27.45;43.29;98351.91;5057837;28;20299;-76
2022/07/30 06:37:41;;;;;;;6.93;3.90;;;;;;;27.61;42.13;98358.81;5057746;28;20212;-76
2022/07/30 06:40:09;;;;;;;5.23;4.10;;;;;;;26.62;43.15;98364.13;5053557;28;20216;-76
2022/07/30 06:42:35;;;;;;;4.50;4.10;;;;;;;26.19;44.40;98354.47;5058457;28;20468;-73
2022/07/30 06:45:02;;;;;;;6.93;4.07;;;;;;;25.96;45.20;98359.31;5057496;28;20244;-73
2022/07/30 06:47:30;;;;;;;4.03;3.63;;;;;;;26.07;44.90;98360.63;5057136;28;20673;-74
2022/07/30 06:49:57;;;;;;;4.97;3.97;;;;;;;25.81;44.91;98355.81;5057223;28;20216;-73
2022/07/30 06:52:24;;;;;;;5.00;3.67;;;;;;;26.03;44.95;98360.19;5051204;28;20211;-73
2022/07/30 06:54:51;;;;;;;4.03;3.50;;;;;;;25.96;44.88;98361.19;5057670;28;20224;-74
2022/07/30 06:57:17;;;;;;;4.90;4.30;;;;;;;25.35;46.14;98357.28;5057397;28;20212;-73
2022/07/30 06:59:44;;;;;;;4.30;3.90;;;;;;;24.47;48.29;98363.88;5057300;28;20310;-74
2022/07/30 07:02:11;;;;;;;5.17;3.73;;;;;;;23.74;51.46;98365.63;5061008;28;20332;-72
2022/07/30 07:04:37;;;;;;;6.43;4.00;;;;;;;23.31;52.80;98368.19;5057593;28;20221;-73
2022/07/30 07:07:05;;;;;;;4.83;3.30;;;;;;;23.03;54.11;98365.13;5056832;28;20216;-73
2022/07/30 07:09:32;;;;;;;4.30;3.90;;;;;;;22.92;55.43;98367.41;5055066;28;20215;-73
2022/07/30 07:11:58;;;;;;;6.00;4.90;;;;;;;22.88;54.49;98372.31;5058097;28;20216;-74
2022/07/30 07:14:25;;;;;;;5.07;4.23;;;;;;;22.80;55.61;98375.03;5056756;28;20219;-73
2022/07/30 07:16:52;;;;;;;6.77;4.23;;;;;;;22.75;56.01;98372.00;5056607;28;20216;-72
2022/07/30 07:19:18;;;;;;;8.90;4.60;;;;;;;22.81;55.35;98371.31;5056687;28;20220;-72
2022/07/30 07:21:45;;;;;;;5.30;4.80;;;;;;;22.82;54.80;98375.72;5059375;28;20239;-72
2022/07/30 07:24:13;;;;;;;6.50;4.40;;;;;;;22.77;55.63;98379.94;5058736;28;20625;-72
2022/07/30 07:26:39;;;;;;;5.87;4.37;;;;;;;22.74;55.57;98374.91;5056359;28;20232;-75
2022/07/30 07:29:06;;;;;;;6.77;4.90;;;;;;;22.79;55.17;98367.97;5056551;28;20219;-75
2022/07/30 07:31:32;;;;;;;5.67;4.77;;;;;;;22.81;55.69;98382.09;5059005;28;20212;-75
2022/07/30 07:33:59;;;;;;;6.60;5.37;;;;;;;22.87;54.93;98376.00;5058996;28;20583;-75
2022/07/30 07:36:25;;;;;;;5.90;4.80;;;;;;;22.94;54.64;98377.00;5054820;28;20216;-75
2022/07/30 07:38:52;;;;;;;8.73;5.73;;;;;;;23.04;54.98;98372.19;5056256;28;20212;-75
2022/07/30 07:41:20;;;;;;;5.03;4.40;;;;;;;23.09;54.89;98379.75;5058243;28;20212;-76
2022/07/30 07:43:46;;;;;;;6.43;4.47;;;;;;;23.18;55.62;98373.31;5059120;28;20306;-77
2022/07/30 07:46:15;;;;;;;4.70;4.20;;;;;;;23.32;53.69;98376.09;5056232;28;20242;-75
2022/07/30 07:48:42;;;;;;;4.00;3.43;;;;;;;23.35;54.15;98383.81;5056461;28;20208;-76
2022/07/30 07:51:08;;;;;;;7.20;5.00;;;;;;;23.42;53.15;98376.66;5057951;28;20214;-74
2022/07/30 07:53:35;;;;;;;6.00;4.20;;;;;;;23.44;53.93;98380.06;5058918;28;20704;-74
2022/07/30 07:56:01;;;;;;;6.33;4.17;;;;;;;23.53;53.43;98383.53;5056089;28;20677;-74
2022/07/30 07:58:29;;;;;;;4.90;4.00;;;;;;;23.65;53.28;98379.38;5056165;28;20216;-74
2022/07/30 08:00:56;;;;;;;4.47;3.80;;;;;;;23.71;50.73;98375.97;5056097;28;20207;-74
2022/07/30 08:03:22;;;;;;;4.30;3.90;;;;;;;23.71;51.86;98382.16;5059553;28;20216;-75
2022/07/30 08:05:49;;;;;;;4.23;3.83;;;;;;;23.76;50.84;98378.91;5055610;28;20235;-76
2022/07/30 08:08:15;;;;;;;5.50;3.63;;;;;;;23.80;48.43;98373.00;5056129;28;20343;-75
2022/07/30 08:10:42;;;;;;;5.67;4.90;;;;;;;23.69;50.52;98369.88;5056964;28;20554;-75
2022/07/30 08:13:08;;;;;;;5.13;4.10;;;;;;;23.54;51.11;98380.63;5059663;28;20215;-75
2022/07/30 08:15:36;;;;;;;5.67;4.37;;;;;;;23.65;51.13;98382.91;5055805;28;20696;-75
2022/07/30 08:18:03;;;;;;;5.27;3.80;;;;;;;23.58;51.06;98375.72;5055606;28;20216;-75
2022/07/30 08:20:29;;;;;;;4.90;3.73;;;;;;;23.65;50.92;98377.50;5056292;28;20218;-77
2022/07/30 08:22:56;;;;;;;4.73;3.80;;;;;;;23.79;49.70;98383.97;5059183;28;20243;-75
2022/07/30 08:25:22;;;;;;;4.50;3.73;;;;;;;23.83;51.40;98374.50;5044504;28;20239;-75
2022/07/30 08:27:49;;;;;;;5.57;4.03;;;;;;;23.97;50.87;98382.66;5052107;28;20219;-76
2022/07/30 08:30:15;;;;;;;5.00;3.30;;;;;;;24.04;48.39;98378.19;5056065;28;20230;-74
2022/07/30 08:32:43;;;;;;;3.67;3.37;;;;;;;24.13;48.64;98374.38;5059669;28;20237;-73
2022/07/30 08:35:10;;;;;;;4.47;4.07;;;;;;;24.23;47.12;98382.19;5056153;28;20238;-77
2022/07/30 08:37:39;;;;;;;4.37;3.97;;;;;;;24.20;47.76;98383.41;5055643;28;20218;-76
2022/07/30 08:40:07;;;;;;;4.80;3.50;;;;;;;24.20;47.61;98377.19;5052677;28;20212;-76
2022/07/30 08:42:35;;;;;;;4.70;3.50;;;;;;;24.27;47.43;98376.25;5059500;28;20285;-76
2022/07/30 08:45:01;;;;;;;7.93;3.30;;;;;;;24.28;46.80;98375.25;5056326;28;20216;-74
2022/07/30 08:47:31;;;;;;;4.10;3.40;;;;;;;24.45;46.95;98386.69;5055441;28;20700;-78
2022/07/30 08:50:03;;;;;;;5.17;3.77;;;;;;;24.46;46.60;98378.41;5056282;28;20209;-74
2022/07/30 08:52:31;;;;;;;4.23;3.83;;;;;;;24.57;47.01;98380.66;5059186;28;20215;-73
2022/07/30 08:54:58;;;;;;;4.23;3.07;;;;;;;24.72;47.65;98381.50;5054341;28;20238;-73
2022/07/30 08:57:25;;;;;;;4.83;3.60;;;;;;;25.00;46.30;98381.63;5055391;28;20208;-73
2022/07/30 08:59:52;;;;;;;5.00;3.63;;;;;;;25.09;46.37;98378.63;5056479;28;20311;-73
2022/07/30 09:02:19;;;;;;;7.17;3.93;;;;;;;25.13;45.39;98374.50;5058855;28;20536;-73
2022/07/30 09:04:45;;;;;;;4.23;3.53;;;;;;;24.85;44.86;98384.34;5055674;28;20224;-76
2022/07/30 09:07:13;;;;;;;3.67;2.97;;;;;;;24.85;44.79;98378.94;5054513;28;20516;-76
2022/07/30 09:09:40;;;;;;;4.10;3.70;;;;;;;25.01;44.57;98384.16;5055959;28;20682;-76
2022/07/30 09:12:34;;;;;;;6.20;3.73;;;;;;;25.05;44.58;98385.41;5059491;28;20222;-71
2022/07/30 09:15:02;;;;;;;5.23;3.63;;;;;;;25.13;44.36;98379.06;5047779;28;20216;-73
2022/07/30 09:17:29;;;;;;;6.90;3.90;;;;;;;25.21;44.23;98384.34;5058502;28;20674;-76
2022/07/30 09:20:02;;;;;;;3.87;3.57;;;;;;;25.20;43.25;98380.81;5061472;28;20215;-76
2022/07/30 09:22:43;;;;;;;3.20;2.90;;;;;;;25.07;43.55;98382.53;5048529;28;20247;-75
2022/07/30 09:25:09;;;;;;;4.50;3.43;;;;;;;25.03;43.99;98379.38;5058880;28;20688;-75
2022/07/30 09:27:44;;;;;;;4.97;3.43;;;;;;;25.03;43.71;98387.47;5061548;28;20243;-76
2022/07/30 09:30:11;;;;;;;4.33;3.67;;;;;;;25.07;43.21;98387.94;5059562;28;20262;-73
2022/07/30 09:32:48;;;;;;;5.90;3.13;;;;;;;25.28;42.78;98391.53;5058897;28;20212;-73
2022/07/30 09:35:15;;;;;;;3.30;3.00;;;;;;;25.32;42.15;98383.88;5059322;28;20219;-75
2022/07/30 09:37:44;;;;;;;4.60;3.10;;;;;;;25.51;43.01;98386.78;5060395;28;20224;-72
2022/07/30 09:40:12;;;;;;;5.23;3.20;;;;;;;25.74;42.19;98382.03;5057124;28;20212;-73
2022/07/30 09:42:39;;;;;;;3.57;2.80;;;;;;;25.88;41.61;98378.38;5057220;28;20670;-72
2022/07/30 09:45:08;;;;;;;3.80;3.23;;;;;;;25.84;41.71;98379.78;5058749;28;20223;-76
2022/07/30 09:47:36;;;;;;;4.40;3.53;;;;;;;25.98;42.06;98388.91;5038106;28;20243;-74
2022/07/30 09:50:05;;;;;;;3.33;3.00;;;;;;;26.04;42.16;98378.09;5048428;28;20307;-74
2022/07/30 09:52:32;;;;;;;3.63;2.70;;;;;;;26.36;42.05;98380.22;5053627;28;20216;-74
2022/07/30 09:55:00;;;;;;;4.20;2.60;;;;;;;26.50;41.40;98373.84;5053609;28;20473;-74
2022/07/30 09:57:26;;;;;;;3.87;2.87;;;;;;;26.59;40.09;98372.66;5053315;28;20704;-72
2022/07/30 09:59:54;;;;;;;2.93;2.67;;;;;;;26.54;39.74;98375.16;5053434;28;20573;-74
2022/07/30 10:02:21;;;;;;;4.00;2.70;;;;;;;26.52;40.04;98382.59;5053414;28;20577;-72
2022/07/30 10:04:47;;;;;;;3.57;2.70;;;;;;;26.28;39.66;98385.78;5053336;28;20220;-72
2022/07/30 10:07:18;;;;;;;3.40;2.60;;;;;;;26.25;39.60;98388.91;5053885;28;20235;-75
2022/07/30 10:09:47;;;;;;;4.03;2.50;;;;;;;26.20;39.27;98383.22;5048939;28;20212;-78
2022/07/30 10:12:16;;;;;;;3.20;2.90;;;;;;;26.04;39.13;98380.81;5053108;28;20227;-77
2022/07/30 10:14:45;;;;;;;3.87;2.73;;;;;;;26.14;39.98;98383.22;5051416;28;20212;-73
2022/07/30 10:17:12;;;;;;;3.30;2.50;;;;;;;26.31;38.71;98369.13;5053161;28;20238;-72
2022/07/30 10:19:39;;;;;;;4.43;2.40;;;;;;;26.57;39.85;98369.31;5053039;28;20231;-74
2022/07/30 10:22:06;;;;;;;3.07;2.53;;;;;;;26.96;39.70;98369.50;5053032;28;20374;-74
2022/07/30 10:24:35;;;;;;;2.47;2.28;;;;;;;27.12;38.41;98368.31;5053357;28;20212;-75
2022/07/30 10:27:02;;;;;;;5.27;2.30;;;;;;;27.17;38.52;98368.53;5052438;28;20239;-73
2022/07/30 10:29:30;;;;;;;2.77;2.40;;;;;;;27.37;38.25;98372.97;5052334;28;20373;-74
2022/07/30 10:31:57;;;;;;;4.00;2.40;;;;;;;27.31;38.50;98370.28;5042216;28;20641;-72
2022/07/30 10:34:24;;;;;;;4.23;2.37;;;;;;;26.93;38.82;98369.91;5052935;28;20623;-73
2022/07/30 10:36:54;;;;;;;3.75;2.50;;;;;;;26.81;38.98;98370.72;5052407;28;20226;-74
2022/07/30 10:39:28;;;;;;;2.60;2.40;;;;;;;26.71;39.64;98373.75;5052767;28;20209;-73
2022/07/30 10:42:06;;;;;;;2.60;2.40;;;;;;;26.71;39.58;98371.06;5050882;28;20213;-74
2022/07/30 10:44:52;;;;;;;2.35;2.15;;;;;;;26.84;39.23;98360.28;5052627;28;20241;-74
2022/07/30 10:47:20;;;;;;;5.75;2.60;;;;;;;26.97;38.80;98359.47;5049515;28;20246;-79
2022/07/30 10:50:07;;;;;;;2.60;2.20;;;;;;;26.79;39.24;98359.19;5052679;28;20243;-78
2022/07/30 10:52:43;;;;;;;4.13;2.70;;;;;;;26.91;38.47;98360.28;5052368;28;20345;-80
2022/07/30 10:55:14;;;;;;;3.22;2.90;;;;;;;26.80;38.58;98367.13;5052175;28;20218;-78
2022/07/30 10:58:02;;;;;;;3.83;2.58;;;;;;;26.55;39.14;98354.28;5052439;28;20220;-77
2022/07/30 11:00:31;;;;;;;6.22;2.92;;;;;;;26.28;40.04;98358.69;5052305;28;20363;-77
2022/07/30 11:03:19;;;;;;;3.28;2.67;;;;;;;26.19;40.14;98362.59;5052055;28;20756;-76
2022/07/30 11:05:48;;;;;;;2.80;2.53;;;;;;;26.31;39.54;98363.72;5052106;28;20703;-73
2022/07/30 11:08:35;;;;;;;4.30;2.60;;;;;;;26.50;38.55;98354.00;5050248;28;20220;-73
2022/07/30 11:11:02;;;;;;;3.20;2.53;;;;;;;26.62;39.14;98353.28;5051744;28;20771;-78
2022/07/30 11:13:50;;;;;;;3.65;2.50;;;;;;;26.88;39.16;98360.72;5052374;28;20564;-78
2022/07/30 11:16:19;;;;;;;2.63;2.20;;;;;;;27.02;37.40;98351.56;5052033;28;20588;-77
2022/07/30 11:19:05;;;;;;;2.93;2.40;;;;;;;26.87;37.71;98351.72;5051901;28;20667;-79
2022/07/30 11:21:33;;;;;;;3.27;2.67;;;;;;;26.70;38.00;98344.97;5051907;28;20246;-74
2022/07/30 11:24:00;;;;;;;2.90;2.23;;;;;;;26.74;39.08;98357.09;5051792;28;20223;-74
2022/07/30 11:26:50;;;;;;;4.13;2.10;;;;;;;26.95;38.17;98346.09;5051751;28;20247;-74
2022/07/30 11:29:33;;;;;;;2.73;1.87;;;;;;;27.07;38.66;98344.47;5043698;28;20218;-73
2022/07/30 11:32:26;;;;;;;2.40;2.20;;;;;;;27.24;36.99;98353.13;5051740;28;20216;-74
2022/07/30 11:35:10;;;;;;;2.00;1.90;;;;;;;27.37;36.75;98347.72;5039867;28;20216;-74
2022/07/30 11:37:55;;;;;;;3.22;2.08;;;;;;;27.59;36.82;98348.16;5051791;28;20212;-74
2022/07/30 11:40:22;;;;;;;2.55;2.22;;;;;;;27.64;35.24;98345.66;5047613;28;20681;-73
2022/07/30 11:42:49;;;;;;;3.17;1.93;;;;;;;27.58;34.95;98342.97;5051633;28;20253;-74
2022/07/30 11:45:25;;;;;;;2.88;1.98;;;;;;;27.40;35.38;98345.44;5051564;28;20222;-74